sensor_id;sensor_type;location;lat;lon;timestamp;P1;durP1;ratioP1;P2;durP2;ratioP2
45236;SDS011;30973;51.442;3.580;2024-01-30T00:00:34;10.57;;;6.63;;
45236;SDS011;30973;51.442;3.580;2024-01-30T00:03:02;9.38;;;6.40;;
45236;SDS011;30973;51.442;3.580;2024-01-30T00:05:30;9.27;;;7.25;;
45236;SDS011;30973;51.442;3.580;2024-01-30T00:07:57;13.05;;;6.28;;
45236;SDS011;30973;51.442;3.580;2024-01-30T00:10:25;9.48;;;7.18;;
45236;SDS011;30973;51.442;3.580;2024-01-30T00:12:52;10.20;;;7.40;;
45236;SDS011;30973;51.442;3.580;2024-01-30T00:15:20;9.05;;;7.35;;
45236;SDS011;30973;51.442;3.580;2024-01-30T00:17:47;9.40;;;6.70;;
45236;SDS011;30973;51.442;3.580;2024-01-30T00:20:15;10.50;;;7.03;;
45236;SDS011;30973;51.442;3.580;2024-01-30T00:22:42;8.23;;;6.57;;
45236;SDS011;30973;51.442;3.580;2024-01-30T00:25:10;9.48;;;7.15;;
45236;SDS011;30973;51.442;3.580;2024-01-30T00:27:38;10.70;;;7.30;;
45236;SDS011;30973;51.442;3.580;2024-01-30T00:30:05;11.23;;;7.55;;
45236;SDS011;30973;51.442;3.580;2024-01-30T00:32:33;7.25;;;6.32;;
45236;SDS011;30973;51.442;3.580;2024-01-30T00:35:01;7.72;;;6.80;;
45236;SDS011;30973;51.442;3.580;2024-01-30T00:37:28;7.50;;;6.53;;
45236;SDS011;30973;51.442;3.580;2024-01-30T00:39:58;10.13;;;7.03;;
45236;SDS011;30973;51.442;3.580;2024-01-30T00:42:26;8.48;;;6.65;;
45236;SDS011;30973;51.442;3.580;2024-01-30T00:44:53;9.50;;;7.25;;
45236;SDS011;30973;51.442;3.580;2024-01-30T00:47:20;8.77;;;6.68;;
45236;SDS011;30973;51.442;3.580;2024-01-30T00:49:48;9.20;;;6.60;;
45236;SDS011;30973;51.442;3.580;2024-01-30T00:52:16;10.80;;;7.32;;
45236;SDS011;30973;51.442;3.580;2024-01-30T00:54:43;8.75;;;6.28;;
45236;SDS011;30973;51.442;3.580;2024-01-30T00:57:11;8.30;;;6.45;;
45236;SDS011;30973;51.442;3.580;2024-01-30T00:59:38;10.38;;;7.15;;
45236;SDS011;30973;51.442;3.580;2024-01-30T01:02:06;9.25;;;6.95;;
45236;SDS011;30973;51.442;3.580;2024-01-30T01:04:33;11.20;;;7.68;;
45236;SDS011;30973;51.442;3.580;2024-01-30T01:07:01;7.80;;;6.13;;
45236;SDS011;30973;51.442;3.580;2024-01-30T01:09:28;11.07;;;6.95;;
45236;SDS011;30973;51.442;3.580;2024-01-30T01:11:56;8.05;;;6.93;;
45236;SDS011;30973;51.442;3.580;2024-01-30T01:14:24;13.43;;;7.03;;
45236;SDS011;30973;51.442;3.580;2024-01-30T01:16:51;9.98;;;6.45;;
45236;SDS011;30973;51.442;3.580;2024-01-30T01:19:19;8.32;;;6.30;;
45236;SDS011;30973;51.442;3.580;2024-01-30T01:21:46;12.68;;;7.38;;
45236;SDS011;30973;51.442;3.580;2024-01-30T01:24:14;7.88;;;6.68;;
45236;SDS011;30973;51.442;3.580;2024-01-30T01:26:41;9.75;;;6.75;;
45236;SDS011;30973;51.442;3.580;2024-01-30T01:29:09;10.65;;;6.88;;
45236;SDS011;30973;51.442;3.580;2024-01-30T01:31:38;9.13;;;6.88;;
45236;SDS011;30973;51.442;3.580;2024-01-30T01:34:15;8.35;;;6.35;;
45236;SDS011;30973;51.442;3.580;2024-01-30T01:36:43;10.07;;;6.85;;
45236;SDS011;30973;51.442;3.580;2024-01-30T01:39:10;11.75;;;7.30;;
45236;SDS011;30973;51.442;3.580;2024-01-30T01:41:38;9.30;;;6.68;;
45236;SDS011;30973;51.442;3.580;2024-01-30T01:44:05;9.60;;;6.88;;
45236;SDS011;30973;51.442;3.580;2024-01-30T01:46:33;9.35;;;7.03;;
45236;SDS011;30973;51.442;3.580;2024-01-30T01:49:02;9.65;;;6.55;;
45236;SDS011;30973;51.442;3.580;2024-01-30T01:51:33;8.82;;;7.20;;
45236;SDS011;30973;51.442;3.580;2024-01-30T01:54:04;10.13;;;7.10;;
45236;SDS011;30973;51.442;3.580;2024-01-30T01:56:32;12.85;;;8.23;;
45236;SDS011;30973;51.442;3.580;2024-01-30T01:59:04;11.98;;;7.25;;
45236;SDS011;30973;51.442;3.580;2024-01-30T02:01:33;10.43;;;7.43;;
45236;SDS011;30973;51.442;3.580;2024-01-30T02:04:01;9.40;;;7.82;;
45236;SDS011;30973;51.442;3.580;2024-01-30T02:06:29;11.73;;;8.00;;
45236;SDS011;30973;51.442;3.580;2024-01-30T02:08:56;9.50;;;7.07;;
45236;SDS011;30973;51.442;3.580;2024-01-30T02:11:24;9.60;;;7.03;;
45236;SDS011;30973;51.442;3.580;2024-01-30T02:13:52;8.57;;;7.22;;
45236;SDS011;30973;51.442;3.580;2024-01-30T02:16:19;7.95;;;6.68;;
45236;SDS011;30973;51.442;3.580;2024-01-30T02:18:47;8.40;;;6.50;;
45236;SDS011;30973;51.442;3.580;2024-01-30T02:21:15;9.68;;;7.00;;
45236;SDS011;30973;51.442;3.580;2024-01-30T02:23:43;9.35;;;7.13;;
45236;SDS011;30973;51.442;3.580;2024-01-30T02:26:11;9.88;;;7.20;;
45236;SDS011;30973;51.442;3.580;2024-01-30T02:28:38;7.57;;;6.32;;
45236;SDS011;30973;51.442;3.580;2024-01-30T02:31:06;9.35;;;7.35;;
45236;SDS011;30973;51.442;3.580;2024-01-30T02:33:33;8.43;;;6.72;;
45236;SDS011;30973;51.442;3.580;2024-01-30T02:36:01;9.80;;;7.25;;
45236;SDS011;30973;51.442;3.580;2024-01-30T02:38:28;11.38;;;7.82;;
45236;SDS011;30973;51.442;3.580;2024-01-30T02:40:56;11.55;;;7.30;;
45236;SDS011;30973;51.442;3.580;2024-01-30T02:43:23;10.10;;;7.25;;
45236;SDS011;30973;51.442;3.580;2024-01-30T02:45:51;13.93;;;7.75;;
45236;SDS011;30973;51.442;3.580;2024-01-30T02:48:18;10.85;;;7.63;;
45236;SDS011;30973;51.442;3.580;2024-01-30T02:50:46;11.68;;;7.78;;
45236;SDS011;30973;51.442;3.580;2024-01-30T02:53:13;12.35;;;7.68;;
45236;SDS011;30973;51.442;3.580;2024-01-30T02:55:41;10.90;;;7.85;;
45236;SDS011;30973;51.442;3.580;2024-01-30T02:58:08;12.93;;;8.05;;
45236;SDS011;30973;51.442;3.580;2024-01-30T03:00:36;9.50;;;7.22;;
45236;SDS011;30973;51.442;3.580;2024-01-30T03:03:04;9.65;;;7.47;;
45236;SDS011;30973;51.442;3.580;2024-01-30T03:05:31;12.63;;;8.27;;
45236;SDS011;30973;51.442;3.580;2024-01-30T03:07:58;13.05;;;9.00;;
45236;SDS011;30973;51.442;3.580;2024-01-30T03:10:26;12.63;;;7.68;;
45236;SDS011;30973;51.442;3.580;2024-01-30T03:12:54;11.73;;;7.43;;
45236;SDS011;30973;51.442;3.580;2024-01-30T03:15:22;9.25;;;7.57;;
45236;SDS011;30973;51.442;3.580;2024-01-30T03:17:49;11.48;;;7.68;;
45236;SDS011;30973;51.442;3.580;2024-01-30T03:20:17;9.77;;;7.07;;
45236;SDS011;30973;51.442;3.580;2024-01-30T03:22:44;12.00;;;8.38;;
45236;SDS011;30973;51.442;3.580;2024-01-30T03:25:12;8.68;;;7.13;;
45236;SDS011;30973;51.442;3.580;2024-01-30T03:27:39;9.07;;;7.55;;
45236;SDS011;30973;51.442;3.580;2024-01-30T03:30:07;14.00;;;7.68;;
45236;SDS011;30973;51.442;3.580;2024-01-30T03:32:35;16.80;;;8.80;;
45236;SDS011;30973;51.442;3.580;2024-01-30T03:35:02;13.48;;;7.95;;
45236;SDS011;30973;51.442;3.580;2024-01-30T03:37:30;9.20;;;7.13;;
45236;SDS011;30973;51.442;3.580;2024-01-30T03:39:58;9.77;;;7.57;;
45236;SDS011;30973;51.442;3.580;2024-01-30T03:42:25;9.55;;;7.80;;
45236;SDS011;30973;51.442;3.580;2024-01-30T03:44:53;8.93;;;7.80;;
45236;SDS011;30973;51.442;3.580;2024-01-30T03:47:21;10.80;;;7.75;;
45236;SDS011;30973;51.442;3.580;2024-01-30T03:49:49;9.30;;;7.57;;
45236;SDS011;30973;51.442;3.580;2024-01-30T03:52:16;9.50;;;6.95;;
45236;SDS011;30973;51.442;3.580;2024-01-30T03:54:44;10.15;;;7.70;;
45236;SDS011;30973;51.442;3.580;2024-01-30T03:57:12;9.85;;;7.63;;
45236;SDS011;30973;51.442;3.580;2024-01-30T03:59:41;10.23;;;8.25;;
45236;SDS011;30973;51.442;3.580;2024-01-30T04:02:10;13.27;;;8.27;;
45236;SDS011;30973;51.442;3.580;2024-01-30T04:04:38;11.18;;;7.90;;
45236;SDS011;30973;51.442;3.580;2024-01-30T04:07:06;13.50;;;8.02;;
45236;SDS011;30973;51.442;3.580;2024-01-30T04:09:33;12.30;;;7.97;;
45236;SDS011;30973;51.442;3.580;2024-01-30T04:12:01;9.15;;;6.97;;
45236;SDS011;30973;51.442;3.580;2024-01-30T04:14:29;10.27;;;7.72;;
45236;SDS011;30973;51.442;3.580;2024-01-30T04:16:57;9.90;;;7.03;;
45236;SDS011;30973;51.442;3.580;2024-01-30T04:19:24;13.13;;;7.70;;
45236;SDS011;30973;51.442;3.580;2024-01-30T04:21:52;11.43;;;7.60;;
45236;SDS011;30973;51.442;3.580;2024-01-30T04:24:19;8.23;;;7.00;;
45236;SDS011;30973;51.442;3.580;2024-01-30T04:26:46;10.38;;;6.47;;
45236;SDS011;30973;51.442;3.580;2024-01-30T04:29:14;10.13;;;6.97;;
45236;SDS011;30973;51.442;3.580;2024-01-30T04:31:41;11.93;;;7.65;;
45236;SDS011;30973;51.442;3.580;2024-01-30T04:34:09;11.95;;;7.35;;
45236;SDS011;30973;51.442;3.580;2024-01-30T04:36:36;9.73;;;7.38;;
45236;SDS011;30973;51.442;3.580;2024-01-30T04:39:04;7.82;;;6.85;;
45236;SDS011;30973;51.442;3.580;2024-01-30T04:41:31;10.18;;;7.00;;
45236;SDS011;30973;51.442;3.580;2024-01-30T04:43:59;10.15;;;7.70;;
45236;SDS011;30973;51.442;3.580;2024-01-30T04:46:26;11.25;;;7.97;;
45236;SDS011;30973;51.442;3.580;2024-01-30T04:48:54;10.05;;;7.13;;
45236;SDS011;30973;51.442;3.580;2024-01-30T04:51:22;12.15;;;8.50;;
45236;SDS011;30973;51.442;3.580;2024-01-30T04:53:49;9.57;;;7.82;;
45236;SDS011;30973;51.442;3.580;2024-01-30T04:56:17;8.73;;;7.13;;
45236;SDS011;30973;51.442;3.580;2024-01-30T04:58:44;8.82;;;7.07;;
45236;SDS011;30973;51.442;3.580;2024-01-30T05:01:15;8.90;;;7.30;;
45236;SDS011;30973;51.442;3.580;2024-01-30T05:03:43;8.85;;;7.55;;
45236;SDS011;30973;51.442;3.580;2024-01-30T05:06:11;11.32;;;8.02;;
45236;SDS011;30973;51.442;3.580;2024-01-30T05:08:38;8.20;;;7.40;;
45236;SDS011;30973;51.442;3.580;2024-01-30T05:11:06;11.23;;;7.60;;
45236;SDS011;30973;51.442;3.580;2024-01-30T05:13:33;9.63;;;7.38;;
45236;SDS011;30973;51.442;3.580;2024-01-30T05:16:01;11.05;;;7.80;;
45236;SDS011;30973;51.442;3.580;2024-01-30T05:18:30;8.93;;;6.97;;
45236;SDS011;30973;51.442;3.580;2024-01-30T05:20:58;10.10;;;7.15;;
45236;SDS011;30973;51.442;3.580;2024-01-30T05:23:26;13.50;;;8.32;;
45236;SDS011;30973;51.442;3.580;2024-01-30T05:25:53;14.95;;;8.73;;
45236;SDS011;30973;51.442;3.580;2024-01-30T05:28:21;9.65;;;7.60;;
45236;SDS011;30973;51.442;3.580;2024-01-30T05:30:48;13.60;;;8.13;;
45236;SDS011;30973;51.442;3.580;2024-01-30T05:33:16;11.73;;;7.95;;
45236;SDS011;30973;51.442;3.580;2024-01-30T05:35:43;10.85;;;7.53;;
45236;SDS011;30973;51.442;3.580;2024-01-30T05:38:11;8.45;;;7.05;;
45236;SDS011;30973;51.442;3.580;2024-01-30T05:40:39;9.32;;;7.47;;
45236;SDS011;30973;51.442;3.580;2024-01-30T05:43:06;10.63;;;8.07;;
45236;SDS011;30973;51.442;3.580;2024-01-30T05:45:34;9.73;;;6.75;;
45236;SDS011;30973;51.442;3.580;2024-01-30T05:48:02;10.02;;;7.47;;
45236;SDS011;30973;51.442;3.580;2024-01-30T05:50:30;8.55;;;7.38;;
45236;SDS011;30973;51.442;3.580;2024-01-30T05:52:57;10.88;;;7.30;;
45236;SDS011;30973;51.442;3.580;2024-01-30T05:55:25;9.45;;;7.20;;
45236;SDS011;30973;51.442;3.580;2024-01-30T05:57:52;13.00;;;7.50;;
45236;SDS011;30973;51.442;3.580;2024-01-30T06:00:20;11.55;;;7.90;;
45236;SDS011;30973;51.442;3.580;2024-01-30T06:02:47;10.63;;;7.88;;
45236;SDS011;30973;51.442;3.580;2024-01-30T06:05:18;9.85;;;7.55;;
45236;SDS011;30973;51.442;3.580;2024-01-30T06:07:48;12.73;;;8.02;;
45236;SDS011;30973;51.442;3.580;2024-01-30T06:10:16;10.85;;;7.30;;
45236;SDS011;30973;51.442;3.580;2024-01-30T06:12:43;11.65;;;7.38;;
45236;SDS011;30973;51.442;3.580;2024-01-30T06:15:11;15.80;;;8.13;;
45236;SDS011;30973;51.442;3.580;2024-01-30T06:17:39;12.20;;;7.55;;
45236;SDS011;30973;51.442;3.580;2024-01-30T06:20:06;11.13;;;7.38;;
45236;SDS011;30973;51.442;3.580;2024-01-30T06:22:34;10.30;;;7.15;;
45236;SDS011;30973;51.442;3.580;2024-01-30T06:25:02;14.00;;;7.53;;
45236;SDS011;30973;51.442;3.580;2024-01-30T06:27:29;10.35;;;8.23;;
45236;SDS011;30973;51.442;3.580;2024-01-30T06:29:57;10.45;;;7.53;;
45236;SDS011;30973;51.442;3.580;2024-01-30T06:32:24;11.75;;;7.65;;
45236;SDS011;30973;51.442;3.580;2024-01-30T06:34:52;12.73;;;7.53;;
45236;SDS011;30973;51.442;3.580;2024-01-30T06:37:19;18.58;;;7.70;;
45236;SDS011;30973;51.442;3.580;2024-01-30T06:39:48;10.60;;;7.13;;
45236;SDS011;30973;51.442;3.580;2024-01-30T06:42:15;12.82;;;7.97;;
45236;SDS011;30973;51.442;3.580;2024-01-30T06:44:43;13.48;;;7.57;;
45236;SDS011;30973;51.442;3.580;2024-01-30T06:47:10;11.23;;;6.78;;
45236;SDS011;30973;51.442;3.580;2024-01-30T06:49:38;11.82;;;6.88;;
45236;SDS011;30973;51.442;3.580;2024-01-30T06:52:05;12.32;;;8.10;;
45236;SDS011;30973;51.442;3.580;2024-01-30T06:54:33;9.25;;;7.65;;
45236;SDS011;30973;51.442;3.580;2024-01-30T06:57:01;10.88;;;7.53;;
45236;SDS011;30973;51.442;3.580;2024-01-30T06:59:28;12.88;;;7.68;;
45236;SDS011;30973;51.442;3.580;2024-01-30T07:01:56;9.98;;;7.72;;
45236;SDS011;30973;51.442;3.580;2024-01-30T07:04:24;13.75;;;7.30;;
45236;SDS011;30973;51.442;3.580;2024-01-30T07:06:51;12.23;;;7.68;;
45236;SDS011;30973;51.442;3.580;2024-01-30T07:09:23;13.80;;;8.32;;
45236;SDS011;30973;51.442;3.580;2024-01-30T07:11:50;13.55;;;7.35;;
45236;SDS011;30973;51.442;3.580;2024-01-30T07:14:18;10.55;;;6.80;;
45236;SDS011;30973;51.442;3.580;2024-01-30T07:16:45;11.00;;;6.80;;
45236;SDS011;30973;51.442;3.580;2024-01-30T07:19:13;11.20;;;7.15;;
45236;SDS011;30973;51.442;3.580;2024-01-30T07:21:40;10.35;;;7.05;;
45236;SDS011;30973;51.442;3.580;2024-01-30T07:24:08;12.18;;;7.75;;
45236;SDS011;30973;51.442;3.580;2024-01-30T07:26:35;12.32;;;7.97;;
45236;SDS011;30973;51.442;3.580;2024-01-30T07:29:03;14.43;;;7.95;;
45236;SDS011;30973;51.442;3.580;2024-01-30T07:31:31;8.38;;;7.25;;
45236;SDS011;30973;51.442;3.580;2024-01-30T07:34:00;10.82;;;7.38;;
45236;SDS011;30973;51.442;3.580;2024-01-30T07:36:27;11.38;;;7.43;;
45236;SDS011;30973;51.442;3.580;2024-01-30T07:38:55;9.98;;;6.85;;
45236;SDS011;30973;51.442;3.580;2024-01-30T07:41:22;11.95;;;7.50;;
45236;SDS011;30973;51.442;3.580;2024-01-30T07:43:51;11.02;;;6.95;;
45236;SDS011;30973;51.442;3.580;2024-01-30T07:46:20;10.32;;;7.32;;
45236;SDS011;30973;51.442;3.580;2024-01-30T07:48:48;9.98;;;7.57;;
45236;SDS011;30973;51.442;3.580;2024-01-30T07:51:20;10.25;;;7.28;;
45236;SDS011;30973;51.442;3.580;2024-01-30T07:53:53;10.68;;;7.10;;
45236;SDS011;30973;51.442;3.580;2024-01-30T07:56:24;9.35;;;7.32;;
45236;SDS011;30973;51.442;3.580;2024-01-30T07:58:52;9.68;;;7.65;;
45236;SDS011;30973;51.442;3.580;2024-01-30T08:01:20;11.85;;;7.05;;
45236;SDS011;30973;51.442;3.580;2024-01-30T08:03:50;10.82;;;6.93;;
45236;SDS011;30973;51.442;3.580;2024-01-30T08:06:18;10.15;;;7.30;;
45236;SDS011;30973;51.442;3.580;2024-01-30T08:08:46;11.18;;;7.28;;
45236;SDS011;30973;51.442;3.580;2024-01-30T08:11:13;12.18;;;7.55;;
45236;SDS011;30973;51.442;3.580;2024-01-30T08:13:41;8.93;;;6.53;;
45236;SDS011;30973;51.442;3.580;2024-01-30T08:16:08;10.10;;;7.25;;
45236;SDS011;30973;51.442;3.580;2024-01-30T08:18:40;11.25;;;7.45;;
45236;SDS011;30973;51.442;3.580;2024-01-30T08:21:08;10.35;;;7.63;;
45236;SDS011;30973;51.442;3.580;2024-01-30T08:23:37;10.00;;;7.80;;
45236;SDS011;30973;51.442;3.580;2024-01-30T08:26:05;11.63;;;6.85;;
45236;SDS011;30973;51.442;3.580;2024-01-30T08:28:32;10.02;;;7.00;;
45236;SDS011;30973;51.442;3.580;2024-01-30T08:31:00;11.65;;;6.60;;
45236;SDS011;30973;51.442;3.580;2024-01-30T08:33:30;10.50;;;6.25;;
45236;SDS011;30973;51.442;3.580;2024-01-30T08:35:58;9.75;;;5.20;;
45236;SDS011;30973;51.442;3.580;2024-01-30T08:38:26;9.88;;;5.38;;
45236;SDS011;30973;51.442;3.580;2024-01-30T08:40:54;7.80;;;4.90;;
45236;SDS011;30973;51.442;3.580;2024-01-30T08:43:21;8.50;;;4.85;;
45236;SDS011;30973;51.442;3.580;2024-01-30T08:45:49;6.07;;;4.32;;
45236;SDS011;30973;51.442;3.580;2024-01-30T08:48:17;11.80;;;3.78;;
45236;SDS011;30973;51.442;3.580;2024-01-30T08:50:45;7.28;;;2.95;;
45236;SDS011;30973;51.442;3.580;2024-01-30T08:53:13;9.40;;;2.88;;
45236;SDS011;30973;51.442;3.580;2024-01-30T08:55:41;10.63;;;2.20;;
45236;SDS011;30973;51.442;3.580;2024-01-30T08:58:08;6.70;;;2.42;;
45236;SDS011;30973;51.442;3.580;2024-01-30T09:00:36;7.95;;;2.20;;
45236;SDS011;30973;51.442;3.580;2024-01-30T09:03:06;8.25;;;1.88;;
45236;SDS011;30973;51.442;3.580;2024-01-30T09:05:37;6.00;;;1.70;;
45236;SDS011;30973;51.442;3.580;2024-01-30T09:08:04;5.18;;;1.17;;
45236;SDS011;30973;51.442;3.580;2024-01-30T09:10:32;8.10;;;1.55;;
45236;SDS011;30973;51.442;3.580;2024-01-30T09:12:59;5.57;;;1.80;;
45236;SDS011;30973;51.442;3.580;2024-01-30T09:15:27;5.25;;;1.70;;
45236;SDS011;30973;51.442;3.580;2024-01-30T09:17:54;6.10;;;1.40;;
45236;SDS011;30973;51.442;3.580;2024-01-30T09:20:22;5.05;;;1.30;;
45236;SDS011;30973;51.442;3.580;2024-01-30T09:22:50;3.03;;;1.00;;
45236;SDS011;30973;51.442;3.580;2024-01-30T09:25:17;3.47;;;0.82;;
45236;SDS011;30973;51.442;3.580;2024-01-30T09:27:45;4.50;;;1.17;;
45236;SDS011;30973;51.442;3.580;2024-01-30T09:30:13;3.40;;;1.25;;
45236;SDS011;30973;51.442;3.580;2024-01-30T09:32:40;2.90;;;0.82;;
45236;SDS011;30973;51.442;3.580;2024-01-30T09:35:08;4.20;;;1.45;;
45236;SDS011;30973;51.442;3.580;2024-01-30T09:37:36;4.18;;;1.40;;
45236;SDS011;30973;51.442;3.580;2024-01-30T09:40:03;3.63;;;1.33;;
45236;SDS011;30973;51.442;3.580;2024-01-30T09:42:35;3.92;;;1.30;;
45236;SDS011;30973;51.442;3.580;2024-01-30T09:45:03;6.18;;;1.25;;
45236;SDS011;30973;51.442;3.580;2024-01-30T09:47:31;5.68;;;1.50;;
45236;SDS011;30973;51.442;3.580;2024-01-30T09:49:59;5.55;;;1.50;;
45236;SDS011;30973;51.442;3.580;2024-01-30T09:52:29;3.33;;;1.10;;
45236;SDS011;30973;51.442;3.580;2024-01-30T09:54:57;3.38;;;1.25;;
45236;SDS011;30973;51.442;3.580;2024-01-30T09:57:26;4.75;;;1.10;;
45236;SDS011;30973;51.442;3.580;2024-01-30T09:59:54;4.20;;;1.17;;
45236;SDS011;30973;51.442;3.580;2024-01-30T10:02:22;4.80;;;1.30;;
45236;SDS011;30973;51.442;3.580;2024-01-30T10:04:50;4.50;;;1.25;;
45236;SDS011;30973;51.442;3.580;2024-01-30T10:07:18;4.35;;;1.63;;
45236;SDS011;30973;51.442;3.580;2024-01-30T10:09:46;2.42;;;1.30;;
45236;SDS011;30973;51.442;3.580;2024-01-30T10:12:13;5.13;;;1.50;;
45236;SDS011;30973;51.442;3.580;2024-01-30T10:14:43;3.63;;;1.25;;
45236;SDS011;30973;51.442;3.580;2024-01-30T10:17:11;3.63;;;1.50;;
45236;SDS011;30973;51.442;3.580;2024-01-30T10:19:53;5.35;;;1.60;;
45236;SDS011;30973;51.442;3.580;2024-01-30T10:22:21;3.97;;;1.60;;
45236;SDS011;30973;51.442;3.580;2024-01-30T10:24:48;6.63;;;1.92;;
45236;SDS011;30973;51.442;3.580;2024-01-30T10:27:16;5.88;;;2.00;;
45236;SDS011;30973;51.442;3.580;2024-01-30T10:29:43;5.53;;;1.85;;
45236;SDS011;30973;51.442;3.580;2024-01-30T10:32:11;8.20;;;2.00;;
45236;SDS011;30973;51.442;3.580;2024-01-30T10:34:38;6.80;;;2.20;;
45236;SDS011;30973;51.442;3.580;2024-01-30T10:37:12;9.20;;;2.28;;
45236;SDS011;30973;51.442;3.580;2024-01-30T10:39:47;7.72;;;2.13;;
45236;SDS011;30973;51.442;3.580;2024-01-30T10:42:16;10.43;;;3.42;;
45236;SDS011;30973;51.442;3.580;2024-01-30T10:47:31;9.85;;;2.22;;
45236;SDS011;30973;51.442;3.580;2024-01-30T10:50:01;9.27;;;1.85;;
45236;SDS011;30973;51.442;3.580;2024-01-30T10:52:30;10.93;;;2.28;;
45236;SDS011;30973;51.442;3.580;2024-01-30T10:54:59;6.80;;;2.20;;
45236;SDS011;30973;51.442;3.580;2024-01-30T10:57:27;5.43;;;1.75;;
45236;SDS011;30973;51.442;3.580;2024-01-30T10:59:56;9.75;;;2.42;;
45236;SDS011;30973;51.442;3.580;2024-01-30T11:02:24;15.48;;;2.58;;
45236;SDS011;30973;51.442;3.580;2024-01-30T11:04:56;9.10;;;2.00;;
45236;SDS011;30973;51.442;3.580;2024-01-30T11:07:25;8.18;;;1.92;;
45236;SDS011;30973;51.442;3.580;2024-01-30T11:09:59;7.03;;;1.88;;
45236;SDS011;30973;51.442;3.580;2024-01-30T11:12:31;9.15;;;1.90;;
45236;SDS011;30973;51.442;3.580;2024-01-30T11:15:04;8.90;;;1.98;;
45236;SDS011;30973;51.442;3.580;2024-01-30T11:20:14;9.55;;;2.72;;
45236;SDS011;30973;51.442;3.580;2024-01-30T11:22:42;12.15;;;2.10;;
45236;SDS011;30973;51.442;3.580;2024-01-30T11:25:15;9.07;;;2.40;;
45236;SDS011;30973;51.442;3.580;2024-01-30T11:27:44;10.68;;;2.30;;
45236;SDS011;30973;51.442;3.580;2024-01-30T11:30:24;11.43;;;2.63;;
45236;SDS011;30973;51.442;3.580;2024-01-30T11:33:10;13.00;;;3.33;;
45236;SDS011;30973;51.442;3.580;2024-01-30T11:35:40;8.73;;;2.58;;
45236;SDS011;30973;51.442;3.580;2024-01-30T11:38:09;13.05;;;3.22;;
45236;SDS011;30973;51.442;3.580;2024-01-30T11:40:37;11.77;;;3.28;;
45236;SDS011;30973;51.442;3.580;2024-01-30T11:43:05;11.55;;;2.97;;
45236;SDS011;30973;51.442;3.580;2024-01-30T11:45:34;11.13;;;2.22;;
45236;SDS011;30973;51.442;3.580;2024-01-30T11:48:01;13.02;;;2.65;;
45236;SDS011;30973;51.442;3.580;2024-01-30T11:50:35;10.30;;;2.13;;
45236;SDS011;30973;51.442;3.580;2024-01-30T11:53:04;9.40;;;2.55;;
45236;SDS011;30973;51.442;3.580;2024-01-30T11:55:33;20.25;;;3.17;;
45236;SDS011;30973;51.442;3.580;2024-01-30T11:58:02;13.40;;;3.35;;
45236;SDS011;30973;51.442;3.580;2024-01-30T12:00:30;10.60;;;2.53;;
45236;SDS011;30973;51.442;3.580;2024-01-30T12:03:00;13.15;;;2.88;;
45236;SDS011;30973;51.442;3.580;2024-01-30T12:05:28;12.60;;;3.80;;
45236;SDS011;30973;51.442;3.580;2024-01-30T12:07:56;7.43;;;2.15;;
45236;SDS011;30973;51.442;3.580;2024-01-30T12:10:28;7.15;;;2.15;;
45236;SDS011;30973;51.442;3.580;2024-01-30T12:12:56;9.18;;;2.88;;
45236;SDS011;30973;51.442;3.580;2024-01-30T12:15:25;7.40;;;2.10;;
45236;SDS011;30973;51.442;3.580;2024-01-30T12:17:52;6.13;;;1.73;;
45236;SDS011;30973;51.442;3.580;2024-01-30T12:20:20;6.38;;;1.98;;
45236;SDS011;30973;51.442;3.580;2024-01-30T12:22:49;8.25;;;1.70;;
45236;SDS011;30973;51.442;3.580;2024-01-30T12:25:18;8.38;;;2.35;;
45236;SDS011;30973;51.442;3.580;2024-01-30T12:27:48;9.80;;;2.85;;
45236;SDS011;30973;51.442;3.580;2024-01-30T12:30:18;8.98;;;2.30;;
45236;SDS011;30973;51.442;3.580;2024-01-30T12:32:50;8.57;;;1.83;;
45236;SDS011;30973;51.442;3.580;2024-01-30T12:35:19;5.30;;;1.65;;
45236;SDS011;30973;51.442;3.580;2024-01-30T12:37:48;8.32;;;1.85;;
45236;SDS011;30973;51.442;3.580;2024-01-30T12:40:16;11.18;;;2.30;;
45236;SDS011;30973;51.442;3.580;2024-01-30T12:42:46;7.15;;;2.55;;
45236;SDS011;30973;51.442;3.580;2024-01-30T12:45:17;8.95;;;2.58;;
45236;SDS011;30973;51.442;3.580;2024-01-30T12:47:48;9.02;;;2.72;;
45236;SDS011;30973;51.442;3.580;2024-01-30T12:50:16;6.50;;;1.70;;
45236;SDS011;30973;51.442;3.580;2024-01-30T12:52:44;7.22;;;2.53;;
45236;SDS011;30973;51.442;3.580;2024-01-30T12:55:15;7.78;;;2.38;;
45236;SDS011;30973;51.442;3.580;2024-01-30T12:57:43;7.30;;;2.22;;
45236;SDS011;30973;51.442;3.580;2024-01-30T13:00:11;12.32;;;2.30;;
45236;SDS011;30973;51.442;3.580;2024-01-30T13:02:38;8.25;;;2.42;;
45236;SDS011;30973;51.442;3.580;2024-01-30T13:05:05;6.65;;;2.00;;
45236;SDS011;30973;51.442;3.580;2024-01-30T13:07:34;6.80;;;2.22;;
45236;SDS011;30973;51.442;3.580;2024-01-30T13:10:02;12.70;;;3.08;;
45236;SDS011;30973;51.442;3.580;2024-01-30T13:12:31;9.45;;;2.70;;
45236;SDS011;30973;51.442;3.580;2024-01-30T13:15:02;10.45;;;2.40;;
45236;SDS011;30973;51.442;3.580;2024-01-30T13:17:31;8.82;;;2.25;;
45236;SDS011;30973;51.442;3.580;2024-01-30T13:19:59;11.48;;;2.58;;
45236;SDS011;30973;51.442;3.580;2024-01-30T13:22:36;9.35;;;2.70;;
45236;SDS011;30973;51.442;3.580;2024-01-30T13:25:06;8.60;;;2.38;;
45236;SDS011;30973;51.442;3.580;2024-01-30T13:27:34;12.50;;;3.10;;
45236;SDS011;30973;51.442;3.580;2024-01-30T13:30:02;8.13;;;2.22;;
45236;SDS011;30973;51.442;3.580;2024-01-30T13:32:30;10.63;;;2.67;;
45236;SDS011;30973;51.442;3.580;2024-01-30T13:34:57;8.65;;;2.72;;
45236;SDS011;30973;51.442;3.580;2024-01-30T13:37:25;11.18;;;2.30;;
45236;SDS011;30973;51.442;3.580;2024-01-30T13:39:52;12.20;;;2.40;;
45236;SDS011;30973;51.442;3.580;2024-01-30T13:42:20;11.05;;;2.35;;
45236;SDS011;30973;51.442;3.580;2024-01-30T13:44:47;12.18;;;2.65;;
45236;SDS011;30973;51.442;3.580;2024-01-30T13:47:17;9.93;;;2.10;;
45236;SDS011;30973;51.442;3.580;2024-01-30T13:49:48;8.65;;;1.70;;
45236;SDS011;30973;51.442;3.580;2024-01-30T13:52:15;10.48;;;2.05;;
45236;SDS011;30973;51.442;3.580;2024-01-30T13:54:43;12.02;;;2.20;;
45236;SDS011;30973;51.442;3.580;2024-01-30T13:57:13;9.30;;;3.58;;
45236;SDS011;30973;51.442;3.580;2024-01-30T13:59:41;5.50;;;2.03;;
45236;SDS011;30973;51.442;3.580;2024-01-30T14:02:09;5.43;;;2.05;;
45236;SDS011;30973;51.442;3.580;2024-01-30T14:04:37;6.38;;;2.15;;
45236;SDS011;30973;51.442;3.580;2024-01-30T14:07:04;10.52;;;2.90;;
45236;SDS011;30973;51.442;3.580;2024-01-30T14:09:33;9.52;;;3.38;;
45236;SDS011;30973;51.442;3.580;2024-01-30T14:12:03;12.32;;;2.92;;
45236;SDS011;30973;51.442;3.580;2024-01-30T14:14:30;7.18;;;1.90;;
45236;SDS011;30973;51.442;3.580;2024-01-30T14:16:58;8.75;;;2.47;;
45236;SDS011;30973;51.442;3.580;2024-01-30T14:19:26;6.50;;;2.20;;
45236;SDS011;30973;51.442;3.580;2024-01-30T14:21:53;7.32;;;2.50;;
45236;SDS011;30973;51.442;3.580;2024-01-30T14:24:21;4.70;;;1.55;;
45236;SDS011;30973;51.442;3.580;2024-01-30T14:26:48;8.77;;;2.20;;
45236;SDS011;30973;51.442;3.580;2024-01-30T14:29:16;9.40;;;2.10;;
45236;SDS011;30973;51.442;3.580;2024-01-30T14:31:43;20.20;;;3.22;;
45236;SDS011;30973;51.442;3.580;2024-01-30T14:34:11;5.43;;;1.90;;
45236;SDS011;30973;51.442;3.580;2024-01-30T14:36:39;5.70;;;2.17;;
45236;SDS011;30973;51.442;3.580;2024-01-30T14:39:08;6.47;;;1.83;;
45236;SDS011;30973;51.442;3.580;2024-01-30T14:41:36;4.55;;;1.73;;
45236;SDS011;30973;51.442;3.580;2024-01-30T14:44:04;8.70;;;2.38;;
45236;SDS011;30973;51.442;3.580;2024-01-30T14:46:33;6.45;;;2.20;;
45236;SDS011;30973;51.442;3.580;2024-01-30T14:49:01;5.18;;;2.00;;
45236;SDS011;30973;51.442;3.580;2024-01-30T14:51:32;4.70;;;1.80;;